Latest Weather Observations for Cobar Airport

IDN60801

Issued at 2:32 pm EDT Monday 19 November 2018 (issued every 10 minutes, with the page automatically refreshed every 10 minutes)

About weather observations | Map of weather stations | Latest weather observations for NSW | Other Formats
Station Details ID: 048237 Name: COBAR AIRPORT AWS Lat: -31.54 Lon: 145.80 Height: 218.0 m
Data from the previous 72 hours. | See also: Recent months at Cobar Airport
Date/Time
EDT
Temp
°C
App
Temp
°C
Dew
Point
°C
Rel
Hum
%
Delta-T
°C
Wind Press
QNH
hPa
Press
MSL
hPa
Rain since
9am
mm
Dir  Spd
km/h
Gust
km/h
Spd
kts
Gust
kts
19/02:30pm 28.8 25.8 11.8 35 9.9 ENE 19 28 10 15 1012.8 1011.9 0.0
19/02:00pm 28.3 25.3 11.8 36 9.6 NE 19 28 10 15 1013.3 1012.4 0.0
19/01:30pm 27.8 25.4 12.6 39 9.0 NE 17 28 9 15 1013.5 1012.6 0.0
19/01:00pm 27.2 24.3 12.4 40 8.7 NE 19 30 10 16 1014.3 1013.4 0.0
19/12:30pm 26.1 22.8 12.9 44 7.8 NNE 22 32 12 17 1015.0 1014.0 0.0
19/12:00pm 25.6 21.8 12.4 43 7.7 NE 24 35 13 19 1015.5 1014.5 0.0
19/11:30am 25.4 21.8 12.9 45 7.3 ENE 24 35 13 19 1015.6 1014.6 0.0
19/11:00am 23.8 20.0 12.4 48 6.6 NE 24 37 13 20 1016.0 1015.0 0.0
19/10:30am 24.5 20.4 13.7 51 6.4 NE 28 37 15 20 1016.4 1015.4 0.0
19/10:00am 23.8 19.8 13.1 51 6.2 ENE 26 37 14 20 1016.7 1015.8 0.0
19/09:30am 23.6 19.4 13.5 53 5.9 NE 28 39 15 21 1016.8 1015.9 0.0
19/09:00am 22.7 18.1 13.5 56 5.4 NE 30 43 16 23 1016.7 1015.8 0.0
19/08:30am 22.5 17.9 13.6 57 5.2 NE 30 43 16 23 1016.5 1015.5 0.0
19/08:00am 21.7 17.7 13.1 58 5.0 ENE 26 37 14 20 1016.2 1015.2 0.0
19/07:30am 20.6 17.3 11.5 56 5.1 ENE 20 30 11 16 1016.1 1015.1 0.0
19/07:00am 19.5 15.4 10.2 55 5.0 ENE 22 33 12 18 1015.7 1014.7 0.0
19/06:30am 18.9 15.0 9.4 54 5.1 ENE 20 33 11 18 1015.4 1014.4 0.0
19/06:00am 18.9 14.8 8.8 52 5.3 E 20 33 11 18 1015.1 1014.1 0.0
19/05:30am 19.7 15.0 9.3 51 5.6 ENE 24 39 13 21 1014.7 1013.7 0.0
19/05:00am 20.0 14.5 9.0 49 5.9 ENE 28 43 15 23 1014.3 1013.4 0.0
19/04:30am 20.4 14.8 8.7 47 6.2 ENE 28 46 15 25 1014.1 1013.2 0.0
19/04:24am 20.5 14.8 8.5 46 6.3 ENE 28 46 15 25 1014.0 1013.1 0.0
19/04:00am 21.0 15.8 8.9 46 6.5 ENE 26 43 14 23 1014.1 1013.2 0.0
19/03:30am 21.7 16.5 8.9 44 6.9 ENE 26 37 14 20 1014.2 1013.3 0.0
19/03:00am 22.0 17.5 8.5 42 7.2 ENE 22 32 12 17 1014.2 1013.3 0.0
19/02:30am 22.7 17.8 8.4 40 7.6 ENE 24 50 13 27 1014.3 1013.4 0.0
19/02:00am 23.5 17.8 8.4 38 8.1 ENE 28 46 15 25 1014.8 1013.8 0.0
19/01:57am 23.5 17.8 8.4 38 8.1 ENE 28 46 15 25 1014.8 1013.8 0.0
19/01:30am 24.3 19.3 7.9 35 8.8 ENE 24 39 13 21 1014.8 1013.8 0.0
19/01:00am 24.8 20.5 7.9 34 9.1 ENE 20 28 11 15 1014.9 1013.9 0.0
19/12:30am 24.9 20.7 7.5 33 9.3 E 19 26 10 14 1014.9 1013.9 0.0
19/12:00am 25.4 21.3 8.0 33 9.4 E 19 26 10 14 1014.8 1013.8 0.0
 
Date/Time
EDT
Temp
°C
App
Temp
°C
Dew
Point
°C
Rel
Hum
%
Delta-T
°C
Wind Press
QNH
hPa
Press
MSL
hPa
Rain since
9am
mm
Dir  Spd
km/h
Gust
km/h
Spd
kts
Gust
kts
18/11:30pm 25.7 22.4 8.2 33 9.5 E 15 20 8 11 1014.7 1013.7 0.0
18/11:00pm 25.7 23.2 8.2 33 9.5 E 11 17 6 9 1014.7 1013.7 0.0
18/10:30pm 25.4 23.1 7.5 32 9.6 ESE 9 11 5 6 1014.5 1013.6 0.0
18/10:00pm 25.9 23.2 7.5 31 9.9 ESE 11 17 6 9 1014.1 1013.2 0.0
18/09:30pm 26.1 23.7 7.2 30 10.1 ESE 9 11 5 6 1013.8 1012.9 0.0
18/09:00pm 26.9 24.1 6.9 28 10.7 ESE 11 13 6 7 1013.6 1012.7 0.0
18/08:30pm 27.5 24.7 6.8 27 11.1 ESE 11 13 6 7 1013.5 1012.6 0.0
18/08:00pm 28.7 25.8 6.7 25 11.8 ESE 11 17 6 9 1013.3 1012.4 0.0
18/07:30pm 29.7 26.2 7.0 24 12.3 ESE 15 19 8 10 1013.1 1012.2 0.0
18/07:00pm 30.2 26.8 6.1 22 12.9 ESE 13 20 7 11 1012.8 1011.9 0.0
18/06:30pm 30.9 27.9 6.0 21 13.4 NE 11 28 6 15 1012.6 1011.6 0.0
18/06:00pm 30.6 27.4 5.1 20 13.5 SSE 11 17 6 9 1012.8 1011.9 0.0
18/05:30pm 30.5 26.9 5.0 20 13.4 ESE 13 22 7 12 1013.0 1012.1 0.0
18/05:00pm 31.8 28.1 6.1 20 13.9 NE 15 26 8 14 1013.1 1012.2 0.0
18/04:30pm 30.2 27.7 4.8 20 13.3 ENE 7 17 4 9 1013.3 1012.4 0.0
18/04:00pm 30.5 27.0 7.0 23 12.8 NNE 15 24 8 13 1013.5 1012.6 0.0
18/03:30pm 31.9 27.6 5.4 19 14.2 ENE 17 26 9 14 1013.9 1013.0 0.0
18/03:00pm 29.8 25.3 4.4 20 13.2 N 17 24 9 13 1014.5 1013.6 0.0
18/02:30pm 29.8 27.0 5.1 21 13.0 ENE 9 28 5 15 1015.1 1014.1 0.0
18/02:00pm 29.4 26.2 6.7 24 12.2 NNW 13 24 7 13 1015.5 1014.5 0.0
18/01:30pm 28.4 24.9 8.7 29 10.9 ENE 17 24 9 13 1016.0 1015.0 0.0
18/01:00pm 28.1 24.3 9.9 32 10.3 NNE 20 30 11 16 1016.6 1015.6 0.0
18/12:30pm 26.8 23.1 10.1 35 9.4 ENE 20 32 11 17 1016.9 1016.0 0.0
18/12:00pm 26.9 23.3 10.6 36 9.2 NE 20 33 11 18 1017.2 1016.3 0.0
18/11:30am 25.6 21.5 10.2 38 8.6 ENE 22 30 12 16 1017.6 1016.7 0.0
18/11:00am 25.5 21.6 10.9 40 8.3 ENE 22 33 12 18 1017.7 1016.8 0.0
18/10:30am 24.7 20.1 10.9 42 7.8 NE 26 35 14 19 1017.6 1016.7 0.0
18/10:00am 23.4 17.5 10.5 44 7.2 ENE 32 43 17 23 1017.8 1016.9 0.0
18/09:30am 23.0 18.2 10.4 45 7.0 ENE 26 39 14 21 1017.8 1016.9 0.0
18/09:00am 22.1 16.5 10.3 47 6.5 ENE 30 44 16 24 1017.6 1016.7 0.0
18/08:30am 21.0 15.8 10.2 50 5.9 ENE 28 43 15 23 1017.5 1016.6 0.0
18/08:00am 20.1 14.0 9.9 52 5.5 ENE 32 44 17 24 1017.3 1016.4 0.0
18/07:30am 19.3 15.2 10.0 55 5.0 E 22 33 12 18 1017.1 1016.2 0.0
18/07:00am 18.7 14.9 9.8 56 4.8 E 20 37 11 20 1017.0 1016.1 0.0
18/06:30am 18.4 14.6 9.7 57 4.6 E 20 32 11 17 1016.6 1015.6 0.0
18/06:00am 18.6 14.4 9.9 57 4.7 E 22 32 12 17 1016.3 1015.3 0.0
18/05:30am 19.0 14.5 10.0 56 4.9 E 24 37 13 20 1016.0 1015.0 0.0
18/05:00am 19.2 15.0 9.7 54 5.1 E 22 32 12 17 1015.9 1014.9 0.0
18/04:30am 19.6 15.6 8.9 50 5.7 E 20 30 11 16 1015.7 1014.7 0.0
18/04:00am 19.5 15.2 6.9 44 6.4 E 19 24 10 13 1015.5 1014.5 0.0
18/03:30am 19.9 14.6 5.2 38 7.3 E 22 30 12 16 1015.6 1014.6 0.0
18/03:00am 20.4 15.0 4.4 35 7.8 E 22 35 12 19 1015.5 1014.5 0.0
18/02:30am 18.4 14.0 0.5 30 8.0 SE 13 19 7 10 1015.7 1014.7 0.0
18/02:00am 15.8 14.4 3.6 44 5.7 CALM 0 0 0 0 1015.7 1014.7 0.0
18/01:30am 16.1 14.5 2.5 40 6.2 CALM 0 0 0 0 1015.9 1014.9 0.0
18/01:00am 17.0 14.2 2.2 37 6.7 SSE 6 7 3 4 1016.0 1015.0 0.0
18/12:30am 18.9 15.7 1.0 30 8.1 SSE 7 9 4 5 1016.1 1015.1 0.0
18/12:00am 19.1 16.0 1.6 31 8.0 SSE 7 7 4 4 1016.2 1015.2 0.0
 
Date/Time
EDT
Temp
°C
App
Temp
°C
Dew
Point
°C
Rel
Hum
%
Delta-T
°C
Wind Press
QNH
hPa
Press
MSL
hPa
Rain since
9am
mm
Dir  Spd
km/h
Gust
km/h
Spd
kts
Gust
kts
17/11:30pm 20.7 17.6 1.1 27 9.0 SSE 7 9 4 5 1016.1 1015.1 0.0
17/11:00pm 22.1 18.5 0.6 24 9.9 SSE 9 11 5 6 1016.2 1015.2 0.0
17/10:38pm 23.1 18.7 0.2 22 10.5 S 13 17 7 9 1016.1 1015.1 0.0
17/10:30pm 23.2 18.8 0.3 22 10.6 S 13 17 7 9 1016.0 1015.0 0.0
17/10:20pm 23.1 18.7 0.2 22 10.5 S 13 15 7 8 1016.0 1015.0 0.0
17/10:00pm 22.9 18.9 0.7 23 10.3 S 11 13 6 7 1015.8 1014.8 0.0
17/09:30pm 23.3 19.3 0.4 22 10.6 S 11 13 6 7 1015.6 1014.6 0.0
17/09:00pm 24.5 20.8 0.1 20 11.3 S 9 11 5 6 1015.3 1014.3 0.0
17/08:30pm 26.1 22.2 -1.7 16 12.6 SSE 9 13 5 7 1015.2 1014.2 0.0
17/08:00pm 27.6 22.8 -2.3 14 13.6 SE 13 19 7 10 1014.8 1013.8 0.0
17/07:30pm 28.8 23.3 -2.3 13 14.3 SSE 17 22 9 12 1014.4 1013.5 0.0
17/07:00pm 29.3 23.3 -3.0 12 14.7 SSE 19 30 10 16 1014.2 1013.3 0.0
17/06:30pm 29.9 23.8 -3.7 11 15.2 S 19 26 10 14 1014.0 1013.1 0.0
17/06:00pm 30.3 24.6 -3.4 11 15.4 SSE 17 28 9 15 1014.0 1013.1 0.0
17/05:30pm 30.2 23.8 -4.8 10 15.6 S 20 30 11 16 1014.0 1013.1 0.0
17/05:00pm 30.5 24.7 -4.5 10 15.7 SSE 17 33 9 18 1014.0 1013.1 0.0
17/04:30pm 30.2 24.0 -4.8 10 15.6 SSW 19 32 10 17 1014.2 1013.3 0.0
17/04:00pm 30.7 24.4 -4.4 10 15.8 SSW 20 41 11 22 1014.7 1013.7 0.0
17/03:30pm 29.9 23.6 -3.7 11 15.2 SSW 20 37 11 20 1015.1 1014.1 0.0
17/03:00pm 29.3 23.2 -4.2 11 14.9 S 19 33 10 18 1015.6 1014.6 0.0
17/02:30pm 28.8 21.7 -4.6 11 14.7 S 24 37 13 20 1015.7 1014.7 0.0
17/02:00pm 28.7 22.3 -4.6 11 14.7 SSE 20 32 11 17 1015.9 1014.9 0.0
17/01:30pm 28.2 21.8 -5.0 11 14.5 S 20 33 11 18 1016.2 1015.2 0.0
17/01:00pm 28.7 22.0 -4.6 11 14.7 SSE 22 32 12 17 1016.6 1015.6 0.0
17/12:30pm 27.7 21.6 -4.3 12 14.1 S 19 32 10 17 1017.0 1016.1 0.0
17/12:00pm 27.1 20.9 -4.7 12 13.8 SE 19 32 10 17 1017.6 1016.7 0.0
17/11:30am 27.8 21.7 -4.2 12 14.1 SE 19 28 10 15 1017.8 1016.9 0.0
17/11:00am 26.2 19.4 -5.4 12 13.4 SSE 22 39 12 21 1017.9 1017.0 0.0
17/10:30am 25.6 19.2 -7.0 11 13.4 SE 19 28 10 15 1018.0 1017.1 0.0
17/10:00am 25.6 19.1 -5.9 12 13.2 SE 20 32 11 17 1017.9 1017.0 0.0
17/09:30am 24.9 19.1 -4.4 14 12.5 SE 17 26 9 14 1018.0 1017.1 0.0
17/09:00am 23.9 17.5 -5.2 14 12.1 SE 20 28 11 15 1017.7 1016.8 0.0
17/08:30am 22.9 16.7 -5.1 15 11.6 SE 19 26 10 14 1017.6 1016.7 0.0
17/08:00am 21.2 16.6 -0.7 23 9.7 SE 13 17 7 9 1017.4 1016.5 0.0
17/07:30am 17.9 14.8 1.4 33 7.5 SSE 7 9 4 5 1017.1 1016.2 0.0
17/07:00am 13.3 11.9 3.7 52 4.4 CALM 0 7 0 4 1016.9 1016.0 0.0
17/06:30am 11.6 10.3 4.1 60 3.4 CALM 0 0 0 0 1016.6 1015.6 0.0
17/06:00am 11.7 10.4 4.0 59 3.5 CALM 0 6 0 3 1016.1 1015.1 0.0
17/05:30am 12.1 9.7 2.0 50 4.4 E 4 9 2 5 1015.9 1014.9 0.0
17/05:00am 12.7 11.3 3.4 53 4.2 CALM 0 6 0 3 1015.9 1014.9 0.0
17/04:30am 13.0 10.6 2.0 47 4.8 ENE 4 6 2 3 1015.7 1014.7 0.0
17/04:00am 13.6 11.3 2.5 47 4.9 SE 4 7 2 4 1015.6 1014.6 0.0
17/03:30am 14.3 12.7 2.2 44 5.4 CALM 0 6 0 3 1015.6 1014.6 0.0
17/03:00am 14.8 13.0 1.3 40 5.9 CALM 0 0 0 0 1015.9 1014.9 0.0
17/02:30am 15.0 13.2 1.2 39 6.1 CALM 0 0 0 0 1016.1 1015.1 0.0
17/02:00am 15.8 13.2 1.2 37 6.4 S 4 7 2 4 1016.3 1015.3 0.0
17/01:30am 16.9 13.6 0.1 32 7.3 S 7 9 4 5 1016.5 1015.5 0.0
17/01:00am 18.6 15.4 -0.2 28 8.3 SSW 6 9 3 5 1016.8 1015.9 0.0
17/12:30am 19.9 15.7 -1.2 24 9.2 S 11 13 6 7 1017.0 1016.1 0.0
17/12:00am 20.9 16.2 -1.6 22 9.8 S 13 17 7 9 1017.1 1016.2 0.0
 
Date/Time
EDT
Temp
°C
App
Temp
°C
Dew
Point
°C
Rel
Hum
%
Delta-T
°C
Wind Press
QNH
hPa
Press
MSL
hPa
Rain since
9am
mm
Dir  Spd
km/h
Gust
km/h
Spd
kts
Gust
kts
16/11:30pm 22.5 17.0 -2.2 19 10.8 SSW 17 20 9 11 1017.2 1016.3 0.0
16/11:00pm 23.0 17.1 -2.6 18 11.1 SSW 19 22 10 12 1017.2 1016.3 0.0
16/10:30pm 23.7 18.0 -3.6 16 11.7 SSW 17 24 9 13 1017.2 1016.3 0.0
16/10:00pm 24.2 18.6 -3.2 16 11.9 SSW 17 20 9 11 1017.0 1016.1 0.0
16/09:30pm 24.5 19.7 -2.9 16 12.0 SSW 13 19 7 10 1016.6 1015.6 0.0
16/09:00pm 25.2 20.3 -3.2 15 12.4 SSW 13 19 7 10 1016.3 1015.3 0.0
16/08:30pm 25.8 21.0 -2.8 15 12.7 SSW 13 17 7 9 1016.0 1015.0 0.0
16/08:00pm 27.0 21.7 -3.7 13 13.5 SSW 15 17 8 9 1015.7 1014.7 0.0
16/07:30pm 28.2 21.9 -3.9 12 14.3 S 20 28 11 15 1015.3 1014.3 0.0
16/07:00pm 29.2 22.6 -3.1 12 14.7 S 22 32 12 17 1015.0 1014.0 0.0
16/06:30pm 29.7 23.4 -3.9 11 15.1 S 20 30 11 16 1014.7 1013.7 0.0
16/06:00pm 30.1 24.1 -1.3 13 14.8 S 20 28 11 15 1014.4 1013.5 0.0
16/05:30pm 30.1 24.1 -1.3 13 14.8 S 20 32 11 17 1014.3 1013.4 0.0
16/05:00pm 30.2 24.7 0.7 15 14.4 SSE 19 30 10 16 1014.5 1013.6 0.0
16/04:30pm 30.5 25.8 1.0 15 14.5 S 15 35 8 19 1014.8 1013.8 0.0
16/04:00pm 30.7 26.2 2.0 16 14.4 SSW 15 26 8 14 1014.9 1013.9 0.0
16/03:30pm 29.8 24.8 1.3 16 14.0 SSE 17 32 9 17 1015.5 1014.5 0.0
16/03:00pm 29.0 24.3 0.7 16 13.7 SSW 15 32 8 17 1016.1 1015.1 0.0

Other Formats:

Comma delimited format used in spreadsheet applications
http://www.bom.gov.au/fwo/IDN60801/IDN60801.94710.axf

JavaScript Object Notation format (JSON) in row-major order
http://www.bom.gov.au/fwo/IDN60801/IDN60801.94710.json